createdAt,value
2022-12-23T00:01:32.160Z,9.10
2022-12-23T00:03:59.848Z,10.63
2022-12-23T00:06:27.352Z,10.73
2022-12-23T00:09:00.192Z,10.10
2022-12-23T00:11:28.064Z,10.43
2022-12-23T00:14:20.679Z,10.48
2022-12-23T00:16:51.167Z,10.50
2022-12-23T00:19:18.516Z,10.93
2022-12-23T00:21:45.674Z,12.30
2022-12-23T00:24:12.684Z,10.10
2022-12-23T00:26:39.625Z,9.80
2022-12-23T00:29:07.082Z,9.10
2022-12-23T00:31:34.089Z,10.93
2022-12-23T00:34:01.129Z,10.55
2022-12-23T00:36:30.245Z,10.98
2022-12-23T00:39:17.480Z,11.40
2022-12-23T00:42:03.189Z,10.15
2022-12-23T00:44:30.271Z,9.02
2022-12-23T00:46:57.515Z,9.77
2022-12-23T00:49:42.846Z,11.25
2022-12-23T00:52:12.877Z,11.85
2022-12-23T00:54:40.379Z,11.30
2022-12-23T00:57:07.254Z,10.00
2022-12-23T00:59:34.405Z,12.68
2022-12-23T01:02:20.188Z,10.77
2022-12-23T01:05:05.849Z,11.38
2022-12-23T01:07:32.782Z,10.50
2022-12-23T01:09:59.964Z,11.38
2022-12-23T01:12:27.153Z,11.52
2022-12-23T01:14:54.186Z,10.48
2022-12-23T01:17:21.221Z,12.07
2022-12-23T01:19:48.184Z,11.43
2022-12-23T01:22:15.177Z,11.15
2022-12-23T01:24:42.455Z,11.68
2022-12-23T01:27:09.515Z,11.18
2022-12-23T01:29:36.833Z,11.55
2022-12-23T01:32:04.121Z,12.70
2022-12-23T01:34:36.326Z,12.48
2022-12-23T01:37:04.432Z,12.40
2022-12-23T01:39:31.437Z,12.95
2022-12-23T01:42:16.956Z,13.30
2022-12-23T01:45:03.414Z,13.60
2022-12-23T01:47:33.415Z,15.18
2022-12-23T01:50:09.363Z,14.90
2022-12-23T01:52:45.873Z,15.60
2022-12-23T01:55:15.939Z,14.15
2022-12-23T01:57:44.285Z,13.32
2022-12-23T02:00:31.421Z,11.98
2022-12-23T02:03:17.227Z,13.23
2022-12-23T02:05:46.165Z,13.10
2022-12-23T02:08:34.561Z,13.00
2022-12-23T02:11:11.649Z,11.98
2022-12-23T02:14:27.625Z,12.05
2022-12-23T02:17:15.115Z,10.55
2022-12-23T02:20:32.750Z,13.52
2022-12-23T02:23:33.576Z,12.25
2022-12-23T02:26:06.544Z,13.15
2022-12-23T02:28:54.833Z,14.05
2022-12-23T02:31:46.550Z,13.90
2022-12-23T02:34:31.237Z,12.98
2022-12-23T02:37:20.937Z,14.88
2022-12-23T02:40:07.488Z,14.95
2022-12-23T02:42:51.112Z,16.83
2022-12-23T02:45:26.533Z,13.68
2022-12-23T02:48:02.185Z,16.55
2022-12-23T02:50:36.260Z,16.65
2022-12-23T02:53:10.439Z,17.80
2022-12-23T02:55:40.453Z,18.50
2022-12-23T02:58:12.250Z,19.02
2022-12-23T03:00:42.017Z,20.20
2022-12-23T03:03:09.498Z,22.70
2022-12-23T03:05:46.609Z,19.38
2022-12-23T03:08:22.837Z,21.90
2022-12-23T03:10:59.464Z,24.02
2022-12-23T03:13:45.800Z,26.17
2022-12-23T03:16:37.445Z,28.57
2022-12-23T03:19:19.573Z,22.05
2022-12-23T03:22:11.202Z,20.48
2022-12-23T03:24:54.830Z,18.25
2022-12-23T03:27:41.486Z,21.33
2022-12-23T03:30:15.280Z,22.52
2022-12-23T03:33:20.903Z,23.17
2022-12-23T03:35:56.799Z,25.77
2022-12-23T03:38:25.961Z,24.38
2022-12-23T03:41:05.629Z,27.20
2022-12-23T03:43:52.279Z,25.88
2022-12-23T03:46:34.874Z,20.15
2022-12-23T03:49:05.997Z,17.58
2022-12-23T03:51:39.750Z,13.80
2022-12-23T03:54:15.509Z,14.68
2022-12-23T03:56:47.530Z,16.55
2022-12-23T03:59:19.742Z,14.20
2022-12-23T04:02:11.514Z,15.48
2022-12-23T04:05:03.276Z,14.02
2022-12-23T04:07:38.877Z,14.57
2022-12-23T04:10:08.121Z,14.00
2022-12-23T04:12:35.248Z,15.65
2022-12-23T04:15:04.899Z,16.10
2022-12-23T04:17:36.272Z,13.07
2022-12-23T04:20:03.741Z,16.90
2022-12-23T04:22:30.895Z,17.13
2022-12-23T04:24:57.913Z,23.77
2022-12-23T04:27:25.501Z,27.30
2022-12-23T04:29:52.438Z,28.33
2022-12-23T04:32:19.333Z,25.60
2022-12-23T04:34:46.290Z,30.75
2022-12-23T04:37:13.419Z,33.13
2022-12-23T04:39:40.348Z,37.45
2022-12-23T04:42:07.434Z,30.52
2022-12-23T04:44:34.359Z,30.17
2022-12-23T04:47:01.425Z,23.20
2022-12-23T04:49:28.517Z,21.17
2022-12-23T04:51:55.459Z,19.70
2022-12-23T04:54:22.459Z,17.48
2022-12-23T04:56:49.430Z,17.27
2022-12-23T04:59:16.480Z,16.10
2022-12-23T05:01:43.581Z,19.42
2022-12-23T05:04:11.404Z,18.60
2022-12-23T05:06:38.536Z,19.02
2022-12-23T05:09:05.886Z,17.58
2022-12-23T05:11:37.106Z,15.88
2022-12-23T05:14:07.256Z,13.50
2022-12-23T05:16:34.435Z,14.55
2022-12-23T05:19:01.458Z,13.57
2022-12-23T05:21:28.795Z,15.20
2022-12-23T05:23:56.199Z,12.98
2022-12-23T05:26:23.210Z,12.75
2022-12-23T05:28:50.544Z,12.77
2022-12-23T05:31:17.657Z,10.88
2022-12-23T05:33:44.801Z,10.80
2022-12-23T05:36:12.467Z,12.98
2022-12-23T05:38:39.468Z,12.82
2022-12-23T05:41:07.263Z,12.75
2022-12-23T05:43:34.340Z,12.35
2022-12-23T05:46:25.907Z,10.50
2022-12-23T05:48:53.759Z,12.35
2022-12-23T05:51:20.823Z,13.85
2022-12-23T05:53:47.720Z,13.35
2022-12-23T05:56:14.792Z,14.25
2022-12-23T05:58:41.836Z,14.70
2022-12-23T06:01:08.933Z,13.88
2022-12-23T06:03:36.059Z,14.18
2022-12-23T06:06:03.127Z,13.25
2022-12-23T06:08:30.146Z,12.77
2022-12-23T06:10:57.218Z,12.82
2022-12-23T06:13:24.165Z,14.77
2022-12-23T06:15:51.091Z,13.20
2022-12-23T06:18:18.360Z,12.65
2022-12-23T06:20:49.021Z,11.63
2022-12-23T06:23:16.048Z,12.40
2022-12-23T06:25:43.155Z,11.77
2022-12-23T06:28:10.113Z,12.38
2022-12-23T06:30:37.031Z,13.23
2022-12-23T06:33:04.086Z,13.15
2022-12-23T06:35:31.207Z,12.85
2022-12-23T06:37:58.142Z,10.32
2022-12-23T06:40:25.119Z,12.63
2022-12-23T06:42:52.057Z,12.38
2022-12-23T06:45:19.038Z,12.38
2022-12-23T06:47:46.228Z,13.68
2022-12-23T06:50:13.160Z,13.57
2022-12-23T06:52:40.154Z,12.85
2022-12-23T06:55:07.417Z,11.98
2022-12-23T06:57:34.336Z,13.02
2022-12-23T07:00:01.399Z,12.75
2022-12-23T07:02:28.598Z,13.27
2022-12-23T07:04:55.717Z,13.52
2022-12-23T07:07:22.660Z,14.40
2022-12-23T07:09:49.678Z,14.30
2022-12-23T07:12:16.878Z,13.63
2022-12-23T07:14:43.804Z,13.77
2022-12-23T07:17:10.983Z,14.65
2022-12-23T07:19:38.018Z,13.73
2022-12-23T07:22:04.920Z,19.77
2022-12-23T07:24:31.845Z,14.10
2022-12-23T07:26:59.063Z,13.57
2022-12-23T07:29:25.994Z,18.60
2022-12-23T07:31:53.512Z,14.10
2022-12-23T07:34:20.615Z,15.82
2022-12-23T07:36:47.608Z,14.43
2022-12-23T07:39:14.645Z,20.80
2022-12-23T07:41:41.567Z,13.27
2022-12-23T07:44:08.941Z,16.08
2022-12-23T07:46:36.312Z,14.90
2022-12-23T07:49:03.608Z,15.15
2022-12-23T07:51:30.629Z,23.55
2022-12-23T07:53:57.846Z,15.73
2022-12-23T07:56:25.028Z,24.90
2022-12-23T07:58:53.337Z,13.95
2022-12-23T08:01:21.107Z,14.98
2022-12-23T08:03:48.629Z,18.45
2022-12-23T08:06:16.696Z,14.27
2022-12-23T08:08:46.121Z,13.38
2022-12-23T08:11:14.943Z,14.65
2022-12-23T08:13:43.957Z,14.43
2022-12-23T08:16:12.470Z,15.30
2022-12-23T08:18:41.988Z,17.40
2022-12-23T08:21:19.603Z,13.05
2022-12-23T08:23:47.564Z,12.48
2022-12-23T08:26:21.301Z,12.48
2022-12-23T08:28:49.591Z,11.32
2022-12-23T08:31:19.387Z,13.23
2022-12-23T08:33:48.709Z,14.75
2022-12-23T08:36:23.292Z,18.80
2022-12-23T08:38:53.283Z,13.38
2022-12-23T08:41:23.652Z,12.80
2022-12-23T08:43:50.746Z,12.98
2022-12-23T08:46:17.834Z,14.70
2022-12-23T08:48:49.117Z,13.65
2022-12-23T08:51:19.044Z,13.57
2022-12-23T08:53:46.782Z,20.60
2022-12-23T08:56:20.308Z,14.40
2022-12-23T08:58:49.650Z,15.23
2022-12-23T09:01:18.254Z,16.92
2022-12-23T09:03:46.509Z,14.70
2022-12-23T09:06:24.730Z,22.58
2022-12-23T09:08:55.753Z,14.52
2022-12-23T09:11:24.678Z,15.18
2022-12-23T09:13:51.808Z,15.15
2022-12-23T09:16:18.903Z,13.68
2022-12-23T09:18:46.150Z,15.20
2022-12-23T09:21:19.550Z,14.02
2022-12-23T09:23:47.048Z,14.65
2022-12-23T09:26:26.336Z,13.00
2022-12-23T09:28:53.799Z,14.15
2022-12-23T09:31:22.212Z,13.10
2022-12-23T09:33:51.999Z,11.80
2022-12-23T09:36:19.992Z,12.45
2022-12-23T09:38:47.183Z,12.25
2022-12-23T09:41:17.204Z,12.73
2022-12-23T09:43:58.875Z,13.35
2022-12-23T09:46:29.892Z,13.48
2022-12-23T09:48:56.810Z,12.30
2022-12-23T09:51:24.241Z,12.20
2022-12-23T09:53:59.903Z,12.65
2022-12-23T09:56:40.009Z,11.40
2022-12-23T09:59:27.216Z,13.05
2022-12-23T10:02:04.981Z,12.75
2022-12-23T10:04:44.426Z,13.43
2022-12-23T10:07:29.900Z,12.90
2022-12-23T10:09:58.195Z,13.38
2022-12-23T10:12:42.418Z,13.32
2022-12-23T10:15:41.485Z,14.15
2022-12-23T10:18:37.663Z,13.45
2022-12-23T10:21:11.796Z,12.80
2022-12-23T10:23:42.869Z,14.82
2022-12-23T10:26:25.554Z,14.10
2022-12-23T10:29:20.183Z,13.20
2022-12-23T10:32:04.330Z,12.90
2022-12-23T10:34:40.387Z,12.90
2022-12-23T10:37:21.283Z,13.10
2022-12-23T10:40:09.742Z,12.15
2022-12-23T10:42:50.571Z,13.68
2022-12-23T10:45:23.035Z,13.25
2022-12-23T10:48:13.754Z,12.27
2022-12-23T10:51:15.029Z,11.68
2022-12-23T10:53:45.751Z,12.05
2022-12-23T10:56:13.861Z,11.90
2022-12-23T10:58:45.176Z,13.20
2022-12-23T11:01:18.892Z,12.63
2022-12-23T11:04:10.237Z,12.75
2022-12-23T11:06:42.519Z,14.27
2022-12-23T11:09:28.571Z,10.68
2022-12-23T11:12:02.695Z,11.45
2022-12-23T11:14:38.846Z,21.33
2022-12-23T11:17:19.383Z,13.95
2022-12-23T11:19:46.672Z,13.48
2022-12-23T11:22:25.476Z,14.40
2022-12-23T11:24:52.921Z,14.10
2022-12-23T11:27:20.040Z,13.23
2022-12-23T11:29:54.301Z,14.15
2022-12-23T11:32:26.302Z,13.50
2022-12-23T11:34:55.897Z,12.88
2022-12-23T11:37:42.173Z,11.48
2022-12-23T11:40:27.917Z,12.88
2022-12-23T11:43:01.790Z,12.50
2022-12-23T11:45:33.030Z,13.38
2022-12-23T11:48:00.196Z,13.45
2022-12-23T11:50:40.892Z,12.38
2022-12-23T11:53:22.696Z,13.82
2022-12-23T11:56:10.312Z,13.32
2022-12-23T11:58:46.710Z,13.82
2022-12-23T12:01:18.948Z,13.45
2022-12-23T12:03:53.426Z,13.48
2022-12-23T12:06:21.992Z,13.20
2022-12-23T12:08:51.787Z,13.18
2022-12-23T12:11:25.134Z,14.23
2022-12-23T12:14:01.675Z,13.07
2022-12-23T12:16:31.561Z,14.10
2022-12-23T12:19:05.499Z,13.77
2022-12-23T12:21:36.907Z,13.32
2022-12-23T12:24:19.182Z,13.40
2022-12-23T12:26:52.695Z,12.65
2022-12-23T12:29:31.211Z,13.38
2022-12-23T12:32:00.211Z,12.80
2022-12-23T12:34:58.978Z,13.95
2022-12-23T12:37:39.827Z,14.52
2022-12-23T12:40:18.462Z,13.20
2022-12-23T12:42:54.197Z,14.05
2022-12-23T12:45:25.210Z,12.57
2022-12-23T12:48:22.956Z,12.88
2022-12-23T12:51:27.771Z,13.32
2022-12-23T12:54:04.464Z,13.00
2022-12-23T12:56:47.129Z,12.70
2022-12-23T12:59:26.115Z,12.80
2022-12-23T13:02:11.503Z,13.38
2022-12-23T13:04:41.076Z,12.63
2022-12-23T13:07:25.713Z,13.57
2022-12-23T13:10:03.399Z,12.00
2022-12-23T13:12:58.476Z,11.73
2022-12-23T13:15:52.987Z,12.90
2022-12-23T13:18:44.213Z,10.27
2022-12-23T13:21:12.344Z,12.25
2022-12-23T13:24:13.011Z,11.20
2022-12-23T13:26:53.876Z,10.50
2022-12-23T13:29:53.087Z,8.98
2022-12-23T13:32:37.589Z,11.35
2022-12-23T13:35:13.620Z,6.90
2022-12-23T13:38:22.008Z,10.77
2022-12-23T13:41:26.657Z,10.23
2022-12-23T13:43:59.525Z,10.07
2022-12-23T13:46:35.836Z,9.52
2022-12-23T13:49:27.797Z,10.35
2022-12-23T13:52:07.253Z,10.52
2022-12-23T13:55:23.488Z,8.92
2022-12-23T13:58:03.957Z,9.63
2022-12-23T14:00:46.653Z,7.83
2022-12-23T14:03:22.979Z,9.10
2022-12-23T14:05:52.023Z,8.75
2022-12-23T14:08:21.971Z,7.72
2022-12-23T14:11:11.969Z,8.35
2022-12-23T14:13:51.245Z,7.63
2022-12-23T14:16:21.402Z,8.15
2022-12-23T14:19:00.563Z,7.90
2022-12-23T14:21:46.307Z,6.95
2022-12-23T14:24:44.267Z,7.05
2022-12-23T14:30:05.167Z,4.95
2022-12-23T14:32:39.692Z,5.63
2022-12-23T14:35:45.007Z,6.03
2022-12-23T14:38:14.963Z,5.22
2022-12-23T14:40:42.176Z,5.47
2022-12-23T14:43:46.663Z,6.63
2022-12-23T14:46:35.228Z,6.35
2022-12-23T14:49:36.779Z,5.93
2022-12-23T14:51:51.071Z,6.10
2022-12-23T14:54:37.064Z,6.93
2022-12-23T14:57:17.968Z,5.75
2022-12-23T15:00:01.548Z,5.72
2022-12-23T15:02:37.585Z,6.03
2022-12-23T15:05:05.204Z,5.03
2022-12-23T15:07:42.412Z,5.00
2022-12-23T15:10:22.796Z,6.20
2022-12-23T15:12:54.952Z,5.85
2022-12-23T15:15:25.404Z,6.00
2022-12-23T15:18:09.970Z,5.30
2022-12-23T15:20:37.348Z,4.35
2022-12-23T15:23:15.526Z,4.35
2022-12-23T15:25:48.574Z,5.10
2022-12-23T15:28:26.422Z,4.90
2022-12-23T15:30:55.593Z,5.32
2022-12-23T15:36:28.049Z,5.13
2022-12-23T15:38:55.226Z,5.43
2022-12-23T15:41:23.200Z,5.10
2022-12-23T15:43:50.453Z,5.65
2022-12-23T15:46:29.257Z,4.90
2022-12-23T15:48:58.011Z,5.25
2022-12-23T15:54:28.153Z,5.85
2022-12-23T15:56:58.687Z,5.55
2022-12-23T15:59:29.707Z,6.18
2022-12-23T16:01:57.013Z,6.10
2022-12-23T16:04:29.247Z,6.35
2022-12-23T16:06:56.393Z,5.45
2022-12-23T16:09:31.381Z,6.13
2022-12-23T16:12:17.878Z,6.88
2022-12-23T16:14:54.473Z,6.88
2022-12-23T16:17:39.498Z,6.82
2022-12-23T16:20:40.163Z,7.05
2022-12-23T16:23:09.899Z,6.30
2022-12-23T16:25:37.825Z,6.78
2022-12-23T16:28:12.937Z,6.80
2022-12-23T16:30:42.116Z,6.65
2022-12-23T16:33:33.675Z,7.53
2022-12-23T16:36:23.914Z,7.53
2022-12-23T16:38:53.457Z,8.13
2022-12-23T16:41:20.725Z,8.63
2022-12-23T16:43:52.489Z,8.32
2022-12-23T16:46:22.398Z,8.93
2022-12-23T16:48:52.644Z,9.32
2022-12-23T16:51:21.974Z,9.38
2022-12-23T16:53:55.354Z,9.73
2022-12-23T16:56:27.645Z,9.52
2022-12-23T16:58:54.594Z,11.55
2022-12-23T17:01:39.822Z,10.70
2022-12-23T17:04:07.558Z,10.88
2022-12-23T17:06:36.046Z,10.95
2022-12-23T17:09:05.725Z,12.07
2022-12-23T17:11:37.381Z,11.52
2022-12-23T17:14:10.432Z,10.85
2022-12-23T17:16:40.847Z,11.88
2022-12-23T17:19:07.843Z,11.98
2022-12-23T17:21:39.223Z,13.43
2022-12-23T17:24:25.766Z,14.25
2022-12-23T17:26:55.399Z,14.68
2022-12-23T17:29:22.647Z,14.65
2022-12-23T17:31:50.285Z,16.65
2022-12-23T17:34:19.943Z,28.83
2022-12-23T17:36:50.390Z,33.50
2022-12-23T17:39:21.335Z,32.97
2022-12-23T17:41:48.880Z,37.50
2022-12-23T17:44:17.974Z,28.23
2022-12-23T17:46:46.272Z,25.60
2022-12-23T17:49:13.338Z,21.92
2022-12-23T17:51:41.522Z,18.00
2022-12-23T17:54:20.930Z,14.18
2022-12-23T17:56:47.901Z,12.63
2022-12-23T17:59:15.408Z,12.75
2022-12-23T18:01:42.585Z,11.48
2022-12-23T18:04:09.613Z,11.75
2022-12-23T18:06:36.539Z,13.32
2022-12-23T18:09:03.633Z,14.13
2022-12-23T18:11:33.880Z,12.20
2022-12-23T18:14:01.584Z,11.70
2022-12-23T18:16:29.027Z,12.38
2022-12-23T18:18:56.279Z,11.25
2022-12-23T18:21:25.878Z,10.55
2022-12-23T18:23:55.108Z,10.55
2022-12-23T18:26:22.192Z,10.73
2022-12-23T18:28:50.447Z,10.20
2022-12-23T18:31:20.393Z,11.38
2022-12-23T18:33:47.947Z,10.65
2022-12-23T18:36:30.731Z,11.40
2022-12-23T18:38:57.923Z,10.65
2022-12-23T18:41:25.963Z,11.25
2022-12-23T18:43:53.573Z,9.95
2022-12-23T18:46:21.113Z,10.48
2022-12-23T18:48:48.698Z,9.27
2022-12-23T18:51:18.212Z,10.90
2022-12-23T18:53:46.721Z,10.15
2022-12-23T18:56:15.391Z,8.45
2022-12-23T18:58:42.749Z,9.43
2022-12-23T19:01:14.232Z,9.65
2022-12-23T19:03:41.526Z,9.07
2022-12-23T19:06:09.674Z,9.10
2022-12-23T19:08:37.694Z,9.15
2022-12-23T19:11:20.791Z,9.52
2022-12-23T19:13:47.882Z,9.35
2022-12-23T19:16:17.911Z,9.50
2022-12-23T19:18:45.979Z,10.43
2022-12-23T19:21:13.039Z,9.88
2022-12-23T19:23:41.232Z,10.13
2022-12-23T19:26:13.329Z,9.98
2022-12-23T19:28:44.408Z,10.00
2022-12-23T19:31:14.740Z,10.60
2022-12-23T19:33:44.103Z,10.00
2022-12-23T19:36:16.979Z,10.05
2022-12-23T19:38:44.186Z,10.95
2022-12-23T19:41:11.307Z,9.98
2022-12-23T19:43:39.122Z,8.43
2022-12-23T19:46:09.125Z,10.23
2022-12-23T19:48:37.377Z,9.82
2022-12-23T19:51:12.921Z,9.57
2022-12-23T19:53:42.037Z,10.60
2022-12-23T19:56:13.130Z,11.10
2022-12-23T19:58:42.100Z,10.25
2022-12-23T20:01:24.140Z,10.90
2022-12-23T20:03:52.495Z,10.65
2022-12-23T20:06:33.342Z,9.60
2022-12-23T20:09:04.277Z,10.25
2022-12-23T20:11:36.819Z,9.57
2022-12-23T20:14:04.628Z,9.80
2022-12-23T20:16:32.205Z,10.52
2022-12-23T20:18:59.416Z,10.38
2022-12-23T20:21:26.451Z,10.35
2022-12-23T20:23:53.501Z,8.27
2022-12-23T20:26:20.627Z,10.55
2022-12-23T20:28:47.589Z,10.57
2022-12-23T20:31:17.625Z,11.00
2022-12-23T20:33:45.689Z,9.95
2022-12-23T20:36:15.192Z,10.02
2022-12-23T20:38:45.157Z,10.23
2022-12-23T20:41:15.005Z,10.30
2022-12-23T20:43:42.606Z,10.93
2022-12-23T20:46:13.113Z,10.13
2022-12-23T20:48:40.577Z,9.15
2022-12-23T20:51:13.446Z,9.13
2022-12-23T20:53:41.373Z,10.68
2022-12-23T20:56:14.029Z,9.00
2022-12-23T20:58:56.125Z,7.82
2022-12-23T21:01:26.796Z,9.27
2022-12-23T21:03:55.511Z,8.38
2022-12-23T21:06:22.810Z,8.52
2022-12-23T21:08:49.900Z,8.82
2022-12-23T21:11:16.893Z,8.68
2022-12-23T21:13:47.724Z,8.52
2022-12-23T21:16:15.284Z,8.00
2022-12-23T21:18:44.151Z,8.35
2022-12-23T21:21:12.579Z,8.88
2022-12-23T21:23:41.462Z,8.27
2022-12-23T21:26:10.302Z,8.18
2022-12-23T21:28:38.470Z,7.88
2022-12-23T21:31:06.682Z,8.75
2022-12-23T21:33:41.400Z,7.90
2022-12-23T21:36:10.913Z,8.30
2022-12-23T21:38:41.577Z,8.75
2022-12-23T21:41:12.579Z,8.32
2022-12-23T21:43:39.679Z,8.00
2022-12-23T21:46:10.588Z,8.50
2022-12-23T21:48:38.610Z,8.65
2022-12-23T21:51:14.154Z,7.88
2022-12-23T21:53:42.709Z,8.75
2022-12-23T21:56:12.765Z,7.40
2022-12-23T21:58:40.208Z,8.18
2022-12-23T22:01:18.952Z,7.20
2022-12-23T22:03:47.686Z,7.45
2022-12-23T22:06:17.595Z,8.40
2022-12-23T22:08:44.586Z,8.02
2022-12-23T22:11:17.620Z,8.73
2022-12-23T22:13:45.629Z,7.60
2022-12-23T22:16:24.235Z,8.18
2022-12-23T22:18:52.297Z,7.93
2022-12-23T22:21:22.985Z,8.25
2022-12-23T22:23:51.280Z,8.30
2022-12-23T22:26:26.010Z,7.57
2022-12-23T22:28:55.895Z,8.00
2022-12-23T22:31:45.890Z,8.07
2022-12-23T22:34:15.113Z,7.97
2022-12-23T22:36:42.518Z,7.95
2022-12-23T22:39:19.394Z,8.07
2022-12-23T22:41:47.360Z,8.00
2022-12-23T22:44:15.253Z,9.00
2022-12-23T22:46:42.937Z,10.02
2022-12-23T22:49:14.004Z,11.98
2022-12-23T22:51:42.541Z,11.45
2022-12-23T22:54:09.896Z,9.75
2022-12-23T22:56:37.258Z,8.95
2022-12-23T22:59:05.010Z,8.73
2022-12-23T23:01:34.710Z,6.63
2022-12-23T23:04:03.395Z,7.72
2022-12-23T23:06:34.155Z,8.55
2022-12-23T23:09:01.466Z,7.72
2022-12-23T23:11:29.730Z,7.82
2022-12-23T23:13:57.042Z,8.25
2022-12-23T23:16:25.295Z,8.50
2022-12-23T23:18:53.755Z,8.57
2022-12-23T23:21:21.296Z,8.07
2022-12-23T23:23:48.598Z,8.30
2022-12-23T23:26:16.197Z,8.63
2022-12-23T23:28:43.761Z,9.52
2022-12-23T23:33:58.397Z,9.18
2022-12-23T23:36:25.674Z,9.43
2022-12-23T23:38:52.714Z,9.60
2022-12-23T23:41:23.254Z,9.15
2022-12-23T23:43:51.599Z,8.40
2022-12-23T23:46:18.734Z,10.15
2022-12-23T23:48:45.713Z,20.27
2022-12-23T23:51:12.906Z,10.95
2022-12-23T23:53:40.507Z,10.18
2022-12-23T23:56:08.548Z,10.73
2022-12-23T23:58:36.717Z,8.93
